Time;durP1;ratioP1;P1;durP2;ratioP2;P2;SDS_P1;SDS_P2;PMS_P1;PMS_P2;Temp;Humidity;BMP_temperature;BMP_pressure;BME280_temperature;BME280_humidity;BME280_pressure;Samples;Min_cycle;Max_cycle;Signal;HPM_P1;HPM_P2
2023/03/05 00:00:17;;;;;;;2.70;1.37;;;4.30;99.90;;;;;;5075026;28;20482;-61
2023/03/05 00:02:44;;;;;;;10.37;3.00;;;4.30;99.90;;;;;;5076416;28;20451;-60
2023/03/05 00:05:12;;;;;;;10.30;2.50;;;4.20;99.90;;;;;;5079105;28;20443;-59
2023/03/05 00:07:39;;;;;;;5.90;1.47;;;4.10;99.90;;;;;;5080026;28;20441;-66
2023/03/05 00:10:08;;;;;;;2.77;1.40;;;4.10;99.90;;;;;;5079551;28;20454;-63
2023/03/05 00:12:35;;;;;;;11.30;2.20;;;4.00;99.90;;;;;;5080253;28;20489;-62
2023/03/05 00:15:02;;;;;;;3.00;1.70;;;4.00;99.90;;;;;;5079856;28;20446;-66
2023/03/05 00:17:30;;;;;;;6.93;2.00;;;4.00;99.90;;;;;;5080770;28;20459;-62
2023/03/05 00:19:58;;;;;;;2.40;1.77;;;3.80;99.90;;;;;;5080783;28;20452;-56
2023/03/05 00:22:25;;;;;;;7.13;2.43;;;3.70;99.90;;;;;;5080619;28;20470;-58
2023/03/05 00:24:52;;;;;;;4.60;2.87;;;3.60;99.90;;;;;;5081246;28;20438;-59
2023/03/05 00:27:22;;;;;;;5.43;1.83;;;3.60;99.90;;;;;;5080176;28;20466;-61
2023/03/05 00:29:49;;;;;;;17.73;2.40;;;3.50;99.90;;;;;;5080707;28;20494;-53
2023/03/05 00:32:16;;;;;;;8.63;1.67;;;3.50;99.90;;;;;;5080188;28;20443;-61
2023/03/05 00:34:43;;;;;;;4.20;2.50;;;3.50;99.90;;;;;;5080112;28;20450;-63
2023/03/05 00:37:10;;;;;;;12.37;1.77;;;3.40;99.90;;;;;;5080254;28;20435;-62
2023/03/05 00:39:37;;;;;;;1.40;1.13;;;3.40;99.90;;;;;;5078941;28;20810;-61
2023/03/05 00:42:04;;;;;;;5.83;1.00;;;3.30;99.90;;;;;;5078881;28;20443;-67
2023/03/05 00:44:32;;;;;;;12.10;1.43;;;3.20;99.90;;;;;;5079325;28;20444;-65
2023/03/05 00:46:59;;;;;;;27.03;2.50;;;3.20;99.90;;;;;;5079313;28;20463;-61
2023/03/05 00:49:26;;;;;;;6.03;1.67;;;3.20;99.90;;;;;;5079674;28;20435;-61
2023/03/05 00:51:53;;;;;;;9.20;2.30;;;3.30;99.90;;;;;;5079467;28;20498;-62
2023/03/05 00:54:22;;;;;;;10.63;3.10;;;3.20;99.90;;;;;;5078126;28;20439;-66
2023/03/05 00:56:49;;;;;;;3.50;1.40;;;3.20;99.90;;;;;;5078729;28;20463;-65
2023/03/05 00:59:16;;;;;;;10.03;1.60;;;3.20;99.90;;;;;;5079077;28;20458;-60
2023/03/05 01:01:44;;;;;;;15.30;1.83;;;3.20;99.90;;;;;;5079505;28;20428;-64
2023/03/05 01:04:11;;;;;;;1.60;1.10;;;3.20;99.90;;;;;;5078973;28;20436;-66
2023/03/05 01:06:43;;;;;;;6.40;2.53;;;3.30;99.90;;;;;;5079271;28;20440;-61
2023/03/05 01:09:10;;;;;;;2.80;1.53;;;3.30;99.90;;;;;;5078975;28;20843;-62
2023/03/05 01:11:37;;;;;;;6.77;2.70;;;3.30;99.90;;;;;;5078663;28;20475;-57
2023/03/05 01:14:04;;;;;;;3.60;2.50;;;3.30;99.90;;;;;;5078702;28;20546;-59
2023/03/05 01:16:33;;;;;;;2.23;0.93;;;3.30;99.90;;;;;;5078542;28;20447;-63
2023/03/05 01:19:01;;;;;;;6.97;1.47;;;3.30;99.90;;;;;;5078113;28;20467;-66
2023/03/05 01:21:28;;;;;;;5.70;2.80;;;3.30;99.90;;;;;;5078420;28;20445;-60
2023/03/05 01:23:55;;;;;;;2.40;1.33;;;3.30;99.90;;;;;;5078653;28;20483;-60
2023/03/05 01:26:22;;;;;;;2.87;1.10;;;3.30;99.90;;;;;;5078981;28;20440;-65
2023/03/05 01:28:49;;;;;;;1.93;1.27;;;3.30;99.90;;;;;;5079258;28;20462;-61
2023/03/05 01:31:16;;;;;;;6.70;1.47;;;3.20;99.90;;;;;;5078411;28;20475;-66
2023/03/05 01:33:46;;;;;;;2.20;2.00;;;3.20;99.90;;;;;;5078709;28;20419;-62
2023/03/05 01:36:17;;;;;;;4.90;1.93;;;3.20;99.90;;;;;;5077657;28;20486;-65
2023/03/05 01:38:45;;;;;;;3.90;0.97;;;3.20;99.90;;;;;;5078669;28;20408;-63
2023/03/05 01:41:13;;;;;;;21.90;3.00;;;3.20;99.90;;;;;;5078034;28;20471;-64
2023/03/05 01:43:41;;;;;;;2.13;0.90;;;3.20;99.90;;;;;;5078191;28;20467;-65
2023/03/05 01:46:38;;;;;;;1.17;0.80;;;3.20;99.90;;;;;;5077487;28;20453;-65
2023/03/05 01:49:18;;;;;;;2.90;1.50;;;3.20;99.90;;;;;;5077648;28;20419;-67
2023/03/05 01:52:00;;;;;;;3.30;2.70;;;3.10;99.90;;;;;;5077701;28;20452;-67
2023/03/05 01:54:32;;;;;;;9.00;1.80;;;3.10;99.90;;;;;;5077792;28;20404;-60
2023/03/05 01:57:04;;;;;;;2.77;1.73;;;3.10;99.90;;;;;;5077667;28;20419;-61
2023/03/05 01:59:31;;;;;;;4.67;1.00;;;3.10;99.90;;;;;;5078684;28;20454;-62
2023/03/05 02:01:59;;;;;;;3.33;0.87;;;3.00;99.90;;;;;;5078308;28;20423;-64
2023/03/05 02:04:34;;;;;;;6.63;1.17;;;3.00;99.90;;;;;;5078408;28;20439;-62
2023/03/05 02:07:03;;;;;;;7.07;2.77;;;2.90;99.90;;;;;;5078415;28;20428;-64
2023/03/05 02:09:30;;;;;;;1.30;0.80;;;2.90;99.90;;;;;;5078258;28;20474;-61
2023/03/05 02:11:59;;;;;;;4.10;0.93;;;2.90;99.90;;;;;;5078485;28;20446;-61
2023/03/05 02:14:28;;;;;;;1.37;0.80;;;2.90;99.90;;;;;;5078248;28;20423;-63
2023/03/05 02:16:54;;;;;;;10.63;1.90;;;2.90;99.90;;;;;;5077646;28;20458;-66
2023/03/05 02:19:21;;;;;;;2.20;1.00;;;3.00;99.90;;;;;;5078465;28;20424;-64
2023/03/05 02:21:50;;;;;;;5.70;2.20;;;2.90;99.90;;;;;;5078330;28;20471;-59
2023/03/05 02:24:34;;;;;;;5.57;2.57;;;2.80;99.90;;;;;;5078112;28;20422;-62
2023/03/05 02:27:02;;;;;;;2.97;1.77;;;2.80;99.90;;;;;;5077691;28;20455;-62
2023/03/05 02:29:30;;;;;;;1.87;0.80;;;2.80;99.90;;;;;;5078544;28;20439;-61
2023/03/05 02:31:57;;;;;;;4.10;1.53;;;2.80;99.90;;;;;;5078397;28;20451;-59
2023/03/05 02:34:24;;;;;;;2.00;0.70;;;2.70;99.90;;;;;;5078163;28;20443;-62
2023/03/05 02:36:54;;;;;;;1.23;1.03;;;2.80;99.90;;;;;;5077554;28;20463;-64
2023/03/05 02:39:21;;;;;;;10.03;3.23;;;2.80;99.90;;;;;;5077179;28;20471;-61
2023/03/05 02:41:48;;;;;;;4.20;1.20;;;2.80;99.90;;;;;;5077612;28;20473;-64
2023/03/05 02:44:15;;;;;;;1.93;1.10;;;2.80;99.90;;;;;;5077146;28;20459;-63
2023/03/05 02:46:42;;;;;;;6.20;1.50;;;2.80;99.90;;;;;;5077490;28;20428;-62
2023/03/05 02:49:09;;;;;;;1.57;1.23;;;2.80;99.90;;;;;;5077111;28;20474;-58
2023/03/05 02:51:35;;;;;;;3.80;2.00;;;2.80;99.90;;;;;;5076841;28;20443;-64
2023/03/05 02:54:04;;;;;;;4.87;1.30;;;2.80;99.90;;;;;;5076721;28;20459;-64
2023/03/05 02:56:31;;;;;;;1.63;0.80;;;2.80;99.90;;;;;;5076428;28;20474;-64
2023/03/05 02:58:58;;;;;;;1.63;1.27;;;2.90;99.90;;;;;;5076662;28;20443;-62
2023/03/05 03:01:27;;;;;;;1.57;1.27;;;2.80;99.90;;;;;;5076408;28;20427;-58
2023/03/05 03:03:53;;;;;;;1.67;0.80;;;2.80;99.90;;;;;;5076043;28;20459;-66
2023/03/05 03:06:21;;;;;;;10.43;1.37;;;2.80;99.90;;;;;;5076025;28;20439;-60
2023/03/05 03:08:47;;;;;;;6.80;1.33;;;3.00;99.90;;;;;;5076566;28;20458;-62
2023/03/05 03:11:17;;;;;;;8.93;1.20;;;2.90;99.90;;;;;;5077017;28;20558;-61
2023/03/05 03:13:44;;;;;;;3.70;1.27;;;2.80;99.90;;;;;;5076024;28;20474;-63
2023/03/05 03:16:14;;;;;;;2.87;1.53;;;2.80;99.90;;;;;;5075932;28;20474;-63
2023/03/05 03:18:41;;;;;;;4.13;1.20;;;2.70;99.90;;;;;;5075351;28;20489;-59
2023/03/05 03:21:08;;;;;;;3.93;1.10;;;2.70;99.90;;;;;;5075565;28;20440;-63
2023/03/05 03:23:35;;;;;;;1.83;0.80;;;2.80;99.90;;;;;;5075693;28;20470;-62
2023/03/05 03:26:02;;;;;;;1.00;0.57;;;2.80;99.90;;;;;;5075637;28;20440;-64
2023/03/05 03:28:31;;;;;;;1.63;0.80;;;2.80;99.90;;;;;;5075541;28;20447;-64
2023/03/05 03:30:59;;;;;;;6.83;1.23;;;2.80;99.90;;;;;;5076250;28;20864;-62
2023/03/05 03:33:26;;;;;;;1.43;0.83;;;2.80;99.90;;;;;;5075062;28;20471;-64
2023/03/05 03:35:53;;;;;;;4.20;1.10;;;2.80;99.90;;;;;;5075879;28;20444;-61
2023/03/05 03:38:20;;;;;;;1.90;1.13;;;2.80;99.90;;;;;;5077114;28;20490;-62
2023/03/05 03:40:47;;;;;;;2.00;1.33;;;2.80;99.90;;;;;;5079265;28;20424;-62
2023/03/05 03:43:14;;;;;;;2.37;0.97;;;2.80;99.90;;;;;;5080901;28;20490;-60
2023/03/05 03:45:43;;;;;;;5.30;1.10;;;2.70;99.90;;;;;;5080836;28;20446;-61
2023/03/05 03:48:11;;;;;;;1.73;1.10;;;2.70;99.90;;;;;;5079956;28;20463;-65
2023/03/05 03:50:39;;;;;;;0.90;0.60;;;2.70;99.90;;;;;;5080287;28;20482;-63
2023/03/05 03:53:06;;;;;;;0.90;0.60;;;2.70;99.90;;;;;;5080788;28;20436;-63
2023/03/05 03:55:33;;;;;;;3.17;1.47;;;2.70;99.90;;;;;;5080169;28;20467;-65
2023/03/05 03:58:01;;;;;;;0.83;0.60;;;2.70;99.90;;;;;;5080630;28;20435;-64
2023/03/05 04:00:29;;;;;;;14.70;1.97;;;2.70;99.90;;;;;;5079203;28;20507;-63
2023/03/05 04:02:57;;;;;;;5.80;1.20;;;2.70;99.90;;;;;;5080089;28;20491;-61
2023/03/05 04:05:26;;;;;;;1.27;0.80;;;2.60;99.90;;;;;;5080235;28;20481;-65
2023/03/05 04:07:53;;;;;;;3.37;0.70;;;2.60;99.90;;;;;;5079987;28;20453;-63
2023/03/05 04:10:20;;;;;;;2.13;1.17;;;2.60;99.90;;;;;;5079816;28;20440;-57
2023/03/05 04:12:47;;;;;;;4.30;1.20;;;2.60;99.90;;;;;;5080004;28;20459;-62
2023/03/05 04:15:14;;;;;;;3.77;0.90;;;2.60;99.90;;;;;;5080356;28;20454;-58
2023/03/05 04:17:42;;;;;;;1.67;0.93;;;2.50;99.90;;;;;;5079856;28;20463;-63
2023/03/05 04:20:12;;;;;;;5.20;0.90;;;2.50;99.90;;;;;;5080583;28;20475;-50
2023/03/05 04:22:42;;;;;;;3.33;1.30;;;2.40;99.90;;;;;;5080705;28;20431;-56
2023/03/05 04:25:09;;;;;;;4.87;0.83;;;2.40;99.90;;;;;;5080242;28;20420;-58
2023/03/05 04:27:38;;;;;;;2.50;0.97;;;2.40;99.90;;;;;;5079486;28;20451;-57
2023/03/05 04:30:07;;;;;;;2.40;0.80;;;2.30;99.90;;;;;;5079565;28;20434;-61
2023/03/05 04:32:34;;;;;;;1.40;0.83;;;2.30;99.90;;;;;;5079470;28;20476;-57
2023/03/05 04:35:01;;;;;;;1.00;0.80;;;2.30;99.90;;;;;;5079761;28;20471;-61
2023/03/05 04:37:29;;;;;;;1.53;0.60;;;2.20;99.90;;;;;;5079804;28;20434;-60
2023/03/05 04:39:56;;;;;;;1.00;0.80;;;2.20;99.90;;;;;;5080319;28;20448;-59
2023/03/05 04:42:23;;;;;;;2.33;1.00;;;2.20;99.90;;;;;;5079938;28;20412;-59
2023/03/05 04:44:52;;;;;;;2.47;1.10;;;2.20;99.90;;;;;;5079290;28;20486;-62
2023/03/05 04:47:19;;;;;;;5.90;1.37;;;2.10;99.90;;;;;;5078892;28;20424;-60
2023/03/05 04:49:46;;;;;;;2.70;1.07;;;2.10;99.90;;;;;;5076471;28;20443;-61
2023/03/05 04:52:14;;;;;;;1.63;1.23;;;2.00;99.90;;;;;;5078372;28;20467;-61
2023/03/05 04:54:47;;;;;;;1.20;0.93;;;2.00;99.90;;;;;;5078703;28;20443;-61
2023/03/05 04:57:14;;;;;;;1.67;1.03;;;2.00;99.90;;;;;;5078774;28;20478;-61
2023/03/05 04:59:42;;;;;;;1.53;0.97;;;2.10;99.90;;;;;;5078352;28;20443;-57
2023/03/05 05:02:11;;;;;;;1.53;1.03;;;2.00;99.90;;;;;;5079151;28;20462;-60
2023/03/05 05:04:39;;;;;;;4.00;0.90;;;2.00;99.90;;;;;;5078566;28;20459;-60
2023/03/05 05:07:07;;;;;;;4.00;0.80;;;1.90;99.90;;;;;;5078728;28;20419;-59
2023/03/05 05:09:33;;;;;;;6.77;1.40;;;2.00;99.90;;;;;;5079000;28;20481;-60
2023/03/05 05:12:02;;;;;;;7.67;1.57;;;1.90;99.90;;;;;;5079259;28;20459;-55
2023/03/05 05:14:28;;;;;;;1.00;0.60;;;2.00;99.90;;;;;;5079479;28;20459;-57
2023/03/05 05:16:55;;;;;;;1.23;1.10;;;1.90;99.90;;;;;;5079002;28;20431;-62
2023/03/05 05:19:22;;;;;;;3.87;1.20;;;1.90;99.90;;;;;;5079153;28;20466;-61
2023/03/05 05:21:49;;;;;;;1.00;0.70;;;1.90;99.90;;;;;;5079283;28;20438;-57
2023/03/05 05:24:16;;;;;;;3.60;2.20;;;1.90;99.90;;;;;;5078236;28;20487;-61
2023/03/05 05:26:43;;;;;;;2.23;1.10;;;2.00;99.90;;;;;;5078275;28;20435;-62
2023/03/05 05:29:11;;;;;;;1.33;1.00;;;2.00;99.90;;;;;;5078992;28;20435;-59
2023/03/05 05:31:38;;;;;;;3.33;0.77;;;2.00;99.90;;;;;;5078712;28;20462;-59
2023/03/05 05:34:05;;;;;;;3.33;0.70;;;2.00;99.90;;;;;;5078026;28;20436;-57
2023/03/05 05:36:32;;;;;;;5.70;1.60;;;1.90;99.90;;;;;;5077767;28;20475;-58
2023/03/05 05:38:58;;;;;;;2.70;2.50;;;2.00;99.90;;;;;;5077620;28;20439;-61
2023/03/05 05:41:25;;;;;;;1.67;0.77;;;2.00;99.90;;;;;;5077920;28;20463;-61
2023/03/05 05:43:55;;;;;;;2.10;1.10;;;2.10;99.90;;;;;;5077975;28;20490;-62
2023/03/05 05:46:24;;;;;;;4.70;2.60;;;2.00;99.90;;;;;;5078113;28;20445;-55
2023/03/05 05:48:51;;;;;;;5.53;1.10;;;2.00;99.90;;;;;;5077611;28;20424;-61
2023/03/05 05:51:20;;;;;;;1.40;0.80;;;2.10;99.90;;;;;;5077333;28;20439;-63
2023/03/05 05:53:47;;;;;;;10.40;0.97;;;2.10;99.90;;;;;;5077104;28;20459;-60
2023/03/05 05:56:16;;;;;;;5.00;1.23;;;2.10;99.90;;;;;;5078016;28;20458;-58
2023/03/05 05:58:45;;;;;;;3.53;1.90;;;2.10;99.90;;;;;;5077260;28;20507;-59
2023/03/05 06:01:14;;;;;;;3.60;1.30;;;2.10;99.90;;;;;;5077241;28;20439;-55
2023/03/05 06:03:43;;;;;;;1.30;0.83;;;2.10;99.90;;;;;;5077598;28;20478;-59
2023/03/05 06:06:11;;;;;;;1.20;0.80;;;2.10;99.90;;;;;;5077957;28;20416;-61
2023/03/05 06:08:38;;;;;;;2.00;1.23;;;2.10;99.90;;;;;;5078482;28;20424;-56
2023/03/05 06:11:05;;;;;;;2.83;2.50;;;2.10;99.90;;;;;;5078122;28;20447;-58
2023/03/05 06:13:34;;;;;;;6.20;1.00;;;2.10;99.90;;;;;;5078715;28;20447;-55
2023/03/05 06:16:05;;;;;;;5.73;1.07;;;2.20;99.90;;;;;;5078508;28;20412;-59
2023/03/05 06:18:33;;;;;;;6.23;1.20;;;2.20;99.90;;;;;;5078568;28;20412;-54
2023/03/05 06:21:03;;;;;;;2.60;1.20;;;2.20;99.90;;;;;;5078884;28;20459;-54
2023/03/05 06:23:30;;;;;;;1.43;1.00;;;2.20;99.90;;;;;;5078658;28;20469;-53
2023/03/05 06:25:59;;;;;;;5.50;1.23;;;2.20;99.90;;;;;;5077795;28;20447;-51
2023/03/05 06:28:26;;;;;;;2.53;1.17;;;2.30;99.90;;;;;;5078025;28;20454;-54
2023/03/05 06:31:00;;;;;;;4.20;0.90;;;2.40;99.90;;;;;;5076618;28;20448;-61
2023/03/05 06:33:27;;;;;;;3.83;1.00;;;2.40;99.90;;;;;;5077018;28;20430;-53
2023/03/05 06:35:54;;;;;;;1.37;0.90;;;3.20;99.90;;;;;;5076972;28;20458;-55
2023/03/05 06:38:24;;;;;;;2.60;0.97;;;3.20;99.90;;;;;;5076910;28;20463;-59
2023/03/05 06:40:54;;;;;;;2.27;0.90;;;3.00;99.90;;;;;;5076675;28;20436;-62
2023/03/05 06:43:21;;;;;;;1.27;1.10;;;2.90;99.90;;;;;;5076531;28;20474;-58
2023/03/05 06:45:48;;;;;;;1.00;0.83;;;2.80;99.90;;;;;;5076042;28;20454;-62
2023/03/05 06:48:15;;;;;;;2.97;1.10;;;2.80;99.90;;;;;;5076454;28;20459;-58
2023/03/05 06:50:41;;;;;;;2.40;1.00;;;2.90;99.90;;;;;;5076682;28;20463;-61
2023/03/05 06:53:08;;;;;;;3.10;1.20;;;2.90;99.90;;;;;;5076126;28;20454;-61
2023/03/05 06:55:39;;;;;;;2.87;1.97;;;3.00;99.90;;;;;;5075850;28;20419;-60
2023/03/05 06:58:07;;;;;;;1.10;0.77;;;3.00;99.90;;;;;;5075819;28;20467;-57
2023/03/05 07:00:34;;;;;;;2.10;1.10;;;3.10;99.90;;;;;;5076095;28;20470;-57
2023/03/05 07:03:01;;;;;;;2.03;1.13;;;3.00;99.90;;;;;;5076358;28;20423;-61
2023/03/05 07:05:28;;;;;;;1.40;1.07;;;3.10;99.90;;;;;;5075185;28;20487;-62
2023/03/05 07:07:56;;;;;;;3.50;0.90;;;3.10;99.90;;;;;;5075454;28;20447;-62
2023/03/05 07:10:23;;;;;;;7.60;1.07;;;3.10;99.90;;;;;;5075724;28;20447;-62
2023/03/05 07:12:51;;;;;;;5.53;1.10;;;3.00;99.90;;;;;;5075964;28;20419;-60
2023/03/05 07:15:18;;;;;;;5.27;1.37;;;3.00;99.90;;;;;;5076105;28;20415;-56
2023/03/05 07:17:45;;;;;;;1.73;0.97;;;3.00;99.90;;;;;;5076173;28;20459;-61
2023/03/05 07:20:12;;;;;;;2.00;1.20;;;3.00;99.90;;;;;;5077198;28;20454;-58
2023/03/05 07:22:39;;;;;;;2.70;0.70;;;3.00;99.90;;;;;;5076231;28;20468;-61
2023/03/05 07:25:07;;;;;;;2.23;1.37;;;3.10;99.90;;;;;;5077094;28;20479;-61
2023/03/05 07:27:35;;;;;;;1.40;0.87;;;3.10;99.90;;;;;;5077427;28;20460;-61
2023/03/05 07:30:05;;;;;;;1.10;0.70;;;3.20;99.90;;;;;;5076941;28;20439;-61
2023/03/05 07:32:34;;;;;;;4.93;1.00;;;3.10;99.90;;;;;;5077727;28;20455;-61
2023/03/05 07:35:01;;;;;;;7.77;1.03;;;3.10;99.90;;;;;;5077311;28;20459;-60
2023/03/05 07:37:28;;;;;;;6.93;1.17;;;3.10;99.90;;;;;;5077097;28;20443;-61
2023/03/05 07:39:55;;;;;;;4.67;1.87;;;3.10;99.90;;;;;;5077368;28;20455;-61
2023/03/05 07:42:21;;;;;;;6.27;1.90;;;3.10;99.90;;;;;;5077323;28;20455;-55
2023/03/05 07:44:48;;;;;;;5.43;0.90;;;3.10;99.90;;;;;;5076970;28;20499;-57
2023/03/05 07:47:17;;;;;;;3.37;1.03;;;3.20;99.90;;;;;;5077076;28;20439;-60
2023/03/05 07:49:44;;;;;;;1.50;0.70;;;3.30;99.90;;;;;;5076304;28;20442;-58
2023/03/05 07:52:10;;;;;;;3.47;1.63;;;3.30;99.90;;;;;;5075986;28;20420;-60
2023/03/05 07:54:42;;;;;;;6.20;1.07;;;3.40;99.90;;;;;;5075622;28;20447;-61
2023/03/05 07:57:13;;;;;;;1.07;0.80;;;3.40;99.90;;;;;;5075415;28;20486;-58
2023/03/05 07:59:40;;;;;;;3.63;0.80;;;3.40;99.90;;;;;;5075431;28;20438;-62
2023/03/05 08:02:07;;;;;;;1.47;1.10;;;3.40;99.90;;;;;;5075828;28;20494;-55
2023/03/05 08:04:35;;;;;;;1.50;1.10;;;3.40;99.90;;;;;;5075426;28;20459;-61
2023/03/05 08:07:02;;;;;;;1.80;1.37;;;3.50;99.90;;;;;;5075598;28;20467;-62
2023/03/05 08:09:29;;;;;;;1.40;0.80;;;3.60;99.90;;;;;;5075680;28;20439;-56
2023/03/05 08:11:59;;;;;;;1.30;0.70;;;3.60;99.90;;;;;;5075418;28;20435;-59
2023/03/05 08:14:26;;;;;;;1.50;0.80;;;3.70;99.90;;;;;;5075412;28;20474;-62
2023/03/05 08:16:53;;;;;;;5.13;0.90;;;3.70;99.90;;;;;;5075098;28;20461;-58
2023/03/05 08:19:23;;;;;;;1.30;1.10;;;3.70;99.90;;;;;;5074792;28;20450;-55
2023/03/05 08:21:51;;;;;;;1.40;0.80;;;3.80;99.90;;;;;;5074939;28;20443;-60
2023/03/05 08:24:18;;;;;;;6.90;1.17;;;3.80;99.90;;;;;;5076449;28;20521;-61
2023/03/05 08:26:47;;;;;;;3.97;1.30;;;4.00;99.90;;;;;;5078646;28;20431;-63
2023/03/05 08:29:14;;;;;;;1.07;0.70;;;4.00;99.90;;;;;;5079188;28;20975;-58
2023/03/05 08:31:46;;;;;;;0.97;0.73;;;4.10;99.90;;;;;;5078605;28;20424;-56
2023/03/05 08:34:13;;;;;;;7.03;1.50;;;4.10;99.90;;;;;;5079217;28;20431;-54
2023/03/05 08:36:39;;;;;;;6.50;1.17;;;4.30;99.90;;;;;;5079413;28;20451;-55
2023/03/05 08:39:08;;;;;;;4.23;0.97;;;4.50;99.90;;;;;;5080216;28;20455;-54
2023/03/05 08:41:35;;;;;;;1.90;1.20;;;4.60;99.90;;;;;;5080298;28;20518;-50
2023/03/05 08:44:02;;;;;;;1.33;0.77;;;4.90;99.90;;;;;;5080170;28;20420;-63
2023/03/05 08:46:30;;;;;;;2.40;1.33;;;5.20;99.90;;;;;;5079306;28;20474;-60
2023/03/05 08:48:57;;;;;;;4.23;1.30;;;5.20;99.90;;;;;;5079216;28;20435;-58
2023/03/05 08:51:26;;;;;;;1.47;0.83;;;5.10;99.90;;;;;;5079624;28;20430;-58
2023/03/05 08:53:54;;;;;;;3.90;1.67;;;5.10;99.90;;;;;;5080106;28;20439;-56
2023/03/05 08:56:22;;;;;;;4.33;0.97;;;5.10;99.90;;;;;;5079783;28;20443;-55
2023/03/05 08:58:51;;;;;;;2.50;1.10;;;5.10;99.90;;;;;;5079356;28;20443;-54
2023/03/05 09:01:18;;;;;;;1.30;0.70;;;5.00;99.90;;;;;;5079784;28;20447;-59
2023/03/05 09:03:45;;;;;;;4.10;0.90;;;5.20;99.90;;;;;;5079762;28;20463;-56
2023/03/05 09:06:12;;;;;;;4.93;1.30;;;5.10;99.90;;;;;;5080068;28;20507;-55
2023/03/05 09:08:42;;;;;;;3.93;1.30;;;5.10;99.90;;;;;;5079906;28;20459;-61
2023/03/05 09:11:11;;;;;;;1.70;0.87;;;5.20;99.90;;;;;;5079832;28;20435;-60
2023/03/05 09:13:40;;;;;;;1.63;0.70;;;5.40;99.90;;;;;;5079924;28;20423;-59
2023/03/05 09:16:08;;;;;;;2.40;1.10;;;5.20;99.90;;;;;;5079512;28;20452;-58
2023/03/05 09:18:36;;;;;;;7.53;1.20;;;5.70;99.90;;;;;;5079466;28;20427;-59
2023/03/05 09:21:05;;;;;;;8.97;3.03;;;5.80;99.90;;;;;;5079524;28;20467;-58
2023/03/05 09:23:32;;;;;;;1.10;0.80;;;5.90;99.90;;;;;;5080429;28;20495;-52
2023/03/05 09:26:04;;;;;;;2.40;1.03;;;5.90;99.90;;;;;;5079980;28;20485;-56
2023/03/05 09:28:31;;;;;;;4.93;1.40;;;5.70;99.90;;;;;;5078965;28;20447;-59
2023/03/05 09:31:02;;;;;;;1.83;1.30;;;5.50;99.90;;;;;;5078764;28;20471;-62
2023/03/05 09:33:29;;;;;;;3.23;1.20;;;5.40;99.90;;;;;;5078485;28;20426;-58
2023/03/05 09:35:56;;;;;;;1.57;0.97;;;5.10;99.90;;;;;;5078509;28;20443;-52
2023/03/05 09:38:23;;;;;;;12.90;2.20;;;5.00;99.90;;;;;;5078705;28;20419;-58
2023/03/05 09:40:57;;;;;;;0.90;0.70;;;4.90;99.90;;;;;;5079205;28;20455;-63
2023/03/05 09:43:44;;;;;;;1.77;0.70;;;4.80;99.90;;;;;;5078017;28;20482;-57
2023/03/05 09:46:27;;;;;;;3.13;1.37;;;4.70;99.90;;;;;;5076967;28;20493;-61
2023/03/05 09:49:00;;;;;;;1.00;0.80;;;4.60;99.90;;;;;;5077381;28;20470;-59
2023/03/05 09:51:31;;;;;;;3.60;0.70;;;4.70;99.90;;;;;;5078174;28;20648;-61
2023/03/05 09:54:01;;;;;;;4.83;1.20;;;4.70;99.90;;;;;;5076408;28;20478;-61
2023/03/05 09:56:32;;;;;;;3.20;1.20;;;4.80;99.90;;;;;;5077153;28;20427;-61
2023/03/05 09:59:04;;;;;;;2.17;1.03;;;4.90;99.90;;;;;;5076524;28;20455;-62
2023/03/05 10:01:38;;;;;;;3.47;1.00;;;5.30;99.90;;;;;;5076909;28;20494;-60
2023/03/05 10:04:11;;;;;;;1.10;0.83;;;5.40;99.90;;;;;;5078056;28;20458;-60
2023/03/05 10:06:47;;;;;;;2.60;1.07;;;5.50;99.90;;;;;;5078176;28;20394;-60
2023/03/05 10:09:21;;;;;;;4.37;1.03;;;5.50;99.90;;;;;;5077162;28;20447;-63
2023/03/05 10:11:54;;;;;;;3.07;0.97;;;5.40;99.90;;;;;;5077144;28;20461;-63
2023/03/05 10:14:26;;;;;;;1.53;1.10;;;5.20;99.90;;;;;;5076821;28;20420;-63
2023/03/05 10:17:22;;;;;;;1.77;1.20;;;5.10;99.90;;;;;;5077296;28;20467;-62
2023/03/05 10:20:18;;;;;;;2.13;1.20;;;4.80;99.90;;;;;;5077163;28;20420;-61
2023/03/05 10:23:00;;;;;;;1.60;0.80;;;4.70;99.90;;;;;;5034279;28;20469;-61
2023/03/05 10:25:45;;;;;;;2.00;1.00;;;4.60;99.90;;;;;;5078068;28;20502;-56
2023/03/05 10:28:18;;;;;;;1.53;0.80;;;4.60;99.90;;;;;;5077741;28;20471;-61
2023/03/05 10:31:13;;;;;;;3.10;1.10;;;4.60;99.90;;;;;;5076493;28;20428;-62
2023/03/05 10:33:48;;;;;;;3.43;1.80;;;4.70;99.90;;;;;;5077563;28;20471;-60
2023/03/05 10:36:32;;;;;;;3.90;1.30;;;4.60;99.90;;;;;;5076736;28;20435;-62
2023/03/05 10:39:19;;;;;;;9.80;1.20;;;4.60;99.90;;;;;;5076445;28;20467;-61
2023/03/05 10:41:54;;;;;;;1.20;0.70;;;4.60;99.90;;;;;;5076197;28;20451;-61
2023/03/05 10:44:28;;;;;;;5.23;0.90;;;4.60;99.90;;;;;;5076319;28;20463;-62
2023/03/05 10:46:58;;;;;;;6.77;2.50;;;4.60;99.90;;;;;;5075463;28;20407;-63
2023/03/05 10:49:30;;;;;;;1.63;0.93;;;4.50;99.90;;;;;;5076124;28;20459;-59
2023/03/05 10:52:05;;;;;;;2.10;1.53;;;4.40;99.90;;;;;;5076518;28;20434;-61
2023/03/05 10:54:34;;;;;;;1.50;1.20;;;4.20;99.90;;;;;;5076814;28;20423;-60
2023/03/05 10:57:13;;;;;;;4.87;1.63;;;4.10;99.90;;;;;;5076712;28;20443;-62
2023/03/05 10:59:44;;;;;;;3.67;1.43;;;4.00;99.90;;;;;;5076063;28;20419;-61
2023/03/05 11:02:11;;;;;;;3.60;1.50;;;4.00;99.90;;;;;;5076230;28;20471;-59
2023/03/05 11:04:40;;;;;;;5.40;1.33;;;3.90;99.90;;;;;;5076549;28;20921;-63
2023/03/05 11:07:29;;;;;;;1.07;0.90;;;3.90;99.90;;;;;;5076462;28;20455;-59
2023/03/05 11:10:04;;;;;;;1.30;0.70;;;3.90;99.90;;;;;;5076264;28;20435;-60
2023/03/05 11:12:33;;;;;;;2.47;1.03;;;4.00;99.90;;;;;;5076397;28;20471;-59
2023/03/05 11:15:05;;;;;;;3.03;1.10;;;4.10;99.90;;;;;;5075953;28;20435;-59
2023/03/05 11:17:36;;;;;;;2.03;1.23;;;4.20;99.90;;;;;;5075174;28;20463;-61
2023/03/05 11:20:29;;;;;;;10.03;1.40;;;4.10;99.90;;;;;;5075699;28;20427;-57
2023/03/05 11:23:09;;;;;;;2.20;1.40;;;4.10;99.90;;;;;;5075976;28;20442;-61
2023/03/05 11:25:53;;;;;;;5.70;1.30;;;4.00;99.90;;;;;;5075564;28;20514;-54
2023/03/05 11:28:22;;;;;;;5.20;1.93;;;4.20;99.90;;;;;;5075342;28;20446;-60
2023/03/05 11:31:07;;;;;;;2.50;1.30;;;4.30;99.90;;;;;;5075456;28;20447;-59
2023/03/05 11:33:36;;;;;;;1.50;1.20;;;4.40;99.90;;;;;;5075051;28;20404;-58
2023/03/05 11:36:23;;;;;;;3.00;1.37;;;4.60;99.90;;;;;;5076119;28;20443;-66
2023/03/05 11:38:56;;;;;;;5.97;1.30;;;4.70;99.90;;;;;;5076965;28;20441;-62
2023/03/05 11:41:29;;;;;;;2.40;1.00;;;4.50;99.90;;;;;;5076458;28;20431;-62
2023/03/05 11:43:58;;;;;;;7.10;1.10;;;4.60;99.90;;;;;;5075996;28;20438;-59
2023/03/05 11:46:27;;;;;;;2.60;1.60;;;4.70;99.90;;;;;;5075718;28;20487;-55
2023/03/05 11:48:55;;;;;;;10.43;1.27;;;4.70;99.90;;;;;;5076158;28;20466;-55
2023/03/05 11:51:28;;;;;;;1.43;0.97;;;4.80;99.90;;;;;;5076085;28;20494;-60
2023/03/05 11:53:59;;;;;;;3.63;2.93;;;5.00;99.90;;;;;;5075324;28;20431;-63
2023/03/05 11:56:30;;;;;;;2.70;1.33;;;5.00;99.90;;;;;;5076397;28;20439;-56
2023/03/05 11:59:01;;;;;;;4.20;1.43;;;5.10;99.90;;;;;;5077291;28;20423;-56
2023/03/05 12:01:31;;;;;;;2.07;1.07;;;4.90;99.90;;;;;;5080443;28;20435;-63
2023/03/05 12:03:58;;;;;;;1.80;1.53;;;4.70;99.90;;;;;;5079720;28;20474;-60
2023/03/05 12:06:32;;;;;;;2.53;1.50;;;4.60;99.90;;;;;;5080081;28;20485;-61
2023/03/05 12:09:03;;;;;;;3.37;0.73;;;4.40;99.90;;;;;;5079396;28;20473;-62
2023/03/05 12:11:32;;;;;;;2.60;1.47;;;4.30;99.90;;;;;;5080731;28;20432;-56
2023/03/05 12:14:05;;;;;;;1.83;0.93;;;4.20;99.90;;;;;;5080823;28;20467;-58
2023/03/05 12:16:37;;;;;;;2.50;1.30;;;4.20;99.90;;;;;;5080344;28;20451;-57
2023/03/05 12:19:29;;;;;;;2.50;1.47;;;4.20;99.90;;;;;;5080057;28;20457;-62
2023/03/05 12:21:58;;;;;;;3.20;1.57;;;4.20;99.90;;;;;;5079641;28;20423;-59
2023/03/05 12:24:38;;;;;;;2.57;1.30;;;4.40;99.90;;;;;;5078859;28;20468;-59
2023/03/05 12:27:13;;;;;;;3.00;1.90;;;4.50;99.90;;;;;;5079548;28;20467;-56
2023/03/05 12:29:43;;;;;;;2.33;1.40;;;4.70;99.90;;;;;;5080370;28;20455;-62
2023/03/05 12:33:02;;;;;;;2.50;1.33;;;4.90;99.90;;;;;;5079558;28;20480;-58
2023/03/05 12:35:35;;;;;;;5.23;1.10;;;5.20;99.90;;;;;;5079842;28;20432;-61
2023/03/05 12:38:34;;;;;;;3.67;1.00;;;5.40;99.90;;;;;;5079936;28;20437;-63
2023/03/05 12:41:40;;;;;;;1.67;1.00;;;5.50;99.90;;;;;;5080284;28;20446;-61
2023/03/05 12:44:19;;;;;;;4.30;1.37;;;5.60;99.90;;;;;;5080644;28;20407;-55
2023/03/05 12:47:07;;;;;;;4.40;1.30;;;5.60;99.90;;;;;;5080507;28;20478;-60
2023/03/05 12:49:38;;;;;;;1.50;1.00;;;5.70;99.90;;;;;;5080075;28;20443;-56
2023/03/05 12:52:12;;;;;;;2.67;1.37;;;5.60;99.90;;;;;;5078330;28;20434;-58
2023/03/05 12:54:41;;;;;;;3.43;2.00;;;5.70;99.90;;;;;;5078294;28;20494;-60
2023/03/05 12:57:17;;;;;;;3.00;1.60;;;5.70;99.90;;;;;;5078256;28;20431;-63
2023/03/05 12:59:49;;;;;;;1.63;1.07;;;5.50;99.90;;;;;;5078690;28;20455;-60
2023/03/05 13:02:23;;;;;;;2.50;1.20;;;5.50;99.90;;;;;;5078344;28;20420;-59
2023/03/05 13:05:00;;;;;;;3.50;1.00;;;5.40;99.90;;;;;;5078280;28;20463;-60
2023/03/05 13:07:27;;;;;;;1.47;0.90;;;5.20;99.90;;;;;;5078774;28;20463;-61
2023/03/05 13:09:55;;;;;;;1.80;1.10;;;5.10;99.90;;;;;;5078396;28;20447;-61